createdAt,value
2018-05-13T00:00:38.882Z,40.40
2018-05-13T00:03:06.487Z,37.07
2018-05-13T00:05:34.061Z,44.40
2018-05-13T00:08:01.633Z,41.40
2018-05-13T00:10:29.279Z,35.57
2018-05-13T00:12:57.656Z,39.27
2018-05-13T00:15:26.041Z,41.90
2018-05-13T00:17:53.635Z,40.10
2018-05-13T00:20:22.056Z,38.90
2018-05-13T00:22:49.662Z,40.37
2018-05-13T00:25:17.295Z,40.27
2018-05-13T00:27:45.682Z,41.50
2018-05-13T00:30:14.075Z,37.20
2018-05-13T00:32:41.676Z,41.97
2018-05-13T00:35:09.317Z,40.70
2018-05-13T00:37:36.965Z,39.00
2018-05-13T00:40:04.543Z,35.27
2018-05-13T00:42:32.132Z,42.53
2018-05-13T00:44:59.693Z,40.50
2018-05-13T00:47:27.301Z,40.60
2018-05-13T00:49:55.636Z,38.97
2018-05-13T00:52:23.275Z,41.03
2018-05-13T00:54:55.424Z,36.17
2018-05-13T00:57:23.023Z,39.43
2018-05-13T00:59:50.654Z,36.00
2018-05-13T01:02:18.336Z,40.40
2018-05-13T01:04:45.864Z,39.83
2018-05-13T01:07:13.451Z,37.40
2018-05-13T01:09:41.052Z,41.20
2018-05-13T01:12:08.607Z,37.77
2018-05-13T01:14:36.192Z,37.87
2018-05-13T01:17:03.768Z,38.83
2018-05-13T01:19:31.391Z,40.73
2018-05-13T01:21:58.986Z,39.80
2018-05-13T01:24:26.608Z,37.57
2018-05-13T01:26:54.231Z,37.53
2018-05-13T01:29:21.834Z,39.60
2018-05-13T01:31:49.512Z,37.00
2018-05-13T01:34:17.867Z,39.57
2018-05-13T01:36:45.533Z,39.43
2018-05-13T01:39:13.085Z,36.97
2018-05-13T01:41:40.719Z,46.90
2018-05-13T01:44:08.339Z,39.30
2018-05-13T01:46:35.987Z,38.77
2018-05-13T01:49:04.359Z,39.30
2018-05-13T01:51:32.839Z,37.13
2018-05-13T01:54:00.398Z,37.30
2018-05-13T01:56:28.019Z,42.87
2018-05-13T01:58:55.620Z,37.97
2018-05-13T02:01:24.007Z,43.00
2018-05-13T02:03:51.642Z,40.37
2018-05-13T02:06:19.240Z,38.20
2018-05-13T02:08:46.874Z,39.73
2018-05-13T02:11:14.435Z,40.73
2018-05-13T02:13:42.047Z,39.50
2018-05-13T02:16:09.628Z,36.23
2018-05-13T02:18:37.279Z,36.67
2018-05-13T02:21:04.876Z,38.30
2018-05-13T02:23:32.511Z,36.67
2018-05-13T02:26:00.932Z,41.97
2018-05-13T02:28:28.588Z,40.80
2018-05-13T02:30:56.185Z,46.93
2018-05-13T02:33:23.793Z,42.07
2018-05-13T02:35:51.360Z,37.67
2018-05-13T02:38:19.019Z,37.77
2018-05-13T02:40:46.649Z,40.38
2018-05-13T02:43:14.317Z,43.40
2018-05-13T02:45:41.950Z,42.50
2018-05-13T02:48:09.646Z,37.50
2018-05-13T02:50:37.302Z,43.00
2018-05-13T02:53:05.016Z,38.43
2018-05-13T02:55:32.593Z,40.30
2018-05-13T02:58:00.309Z,37.47
2018-05-13T03:00:28.003Z,37.20
2018-05-13T03:02:56.363Z,41.77
2018-05-13T03:05:23.958Z,42.27
2018-05-13T03:07:51.631Z,39.87
2018-05-13T03:10:19.220Z,39.70
2018-05-13T03:12:47.062Z,43.60
2018-05-13T03:15:14.694Z,40.03
2018-05-13T03:17:43.069Z,47.37
2018-05-13T03:20:10.853Z,36.90
2018-05-13T03:22:38.441Z,45.53
2018-05-13T03:25:06.129Z,38.57
2018-05-13T03:27:33.744Z,36.73
2018-05-13T03:30:01.400Z,41.17
2018-05-13T03:32:29.013Z,38.90
2018-05-13T03:34:57.388Z,36.27
2018-05-13T03:37:24.969Z,41.43
2018-05-13T03:39:52.582Z,39.60
2018-05-13T03:42:20.177Z,41.80
2018-05-13T03:44:47.883Z,45.17
2018-05-13T03:47:15.543Z,38.93
2018-05-13T03:49:43.942Z,37.60
2018-05-13T03:52:11.605Z,43.77
2018-05-13T03:54:39.277Z,40.50
2018-05-13T03:57:06.905Z,41.10
2018-05-13T03:59:35.293Z,38.10
2018-05-13T04:02:02.848Z,41.00
2018-05-13T04:04:31.283Z,42.47
2018-05-13T04:06:58.896Z,37.20
2018-05-13T04:09:38.555Z,39.17
2018-05-13T04:12:17.960Z,40.70
2018-05-13T04:14:58.288Z,40.40
2018-05-13T04:17:25.917Z,36.17
2018-05-13T04:19:53.599Z,43.37
2018-05-13T04:22:21.247Z,42.30
2018-05-13T04:24:48.837Z,42.50
2018-05-13T04:27:16.451Z,46.03
2018-05-13T04:29:44.061Z,45.67
2018-05-13T04:32:11.691Z,42.63
2018-05-13T04:34:39.272Z,41.10
2018-05-13T04:37:07.072Z,43.40
2018-05-13T04:39:35.680Z,45.67
2018-05-13T04:42:03.349Z,40.00
2018-05-13T04:44:30.975Z,42.37
2018-05-13T04:46:59.354Z,39.20
2018-05-13T04:49:27.765Z,45.90
2018-05-13T04:51:55.430Z,42.40
2018-05-13T04:54:23.250Z,48.00
2018-05-13T04:56:50.861Z,41.43
2018-05-13T04:59:18.440Z,37.13
2018-05-13T05:01:46.039Z,34.03
2018-05-13T05:04:14.427Z,35.10
2018-05-13T05:06:42.119Z,35.63
2018-05-13T05:09:09.775Z,40.55
2018-05-13T05:11:37.412Z,41.20
2018-05-13T05:14:05.789Z,43.80
2018-05-13T05:16:33.370Z,40.15
2018-05-13T05:19:00.989Z,37.73
2018-05-13T05:21:28.569Z,37.70
2018-05-13T05:23:58.055Z,40.90
2018-05-13T05:26:25.652Z,41.10
2018-05-13T05:28:55.433Z,40.53
2018-05-13T05:31:23.036Z,38.50
2018-05-13T05:33:50.644Z,39.27
2018-05-13T05:36:18.269Z,48.23
2018-05-13T05:38:45.848Z,34.57
2018-05-13T05:41:13.500Z,38.90
2018-05-13T05:43:41.060Z,35.50
2018-05-13T05:46:08.684Z,39.97
2018-05-13T05:48:36.281Z,33.43
2018-05-13T05:51:03.903Z,32.87
2018-05-13T05:53:32.307Z,36.90
2018-05-13T05:56:00.269Z,33.70
2018-05-13T05:58:27.844Z,34.63
2018-05-13T06:00:55.472Z,33.73
2018-05-13T06:03:23.973Z,27.83
2018-05-13T06:05:51.547Z,31.50
2018-05-13T06:08:19.202Z,32.43
2018-05-13T06:10:46.874Z,30.10
2018-05-13T06:13:14.502Z,27.97
2018-05-13T06:15:42.829Z,28.70
2018-05-13T06:18:10.442Z,30.90
2018-05-13T06:20:38.830Z,27.50
2018-05-13T06:23:06.419Z,27.90
2018-05-13T06:25:34.047Z,28.50
2018-05-13T06:28:02.461Z,27.27
2018-05-13T06:30:30.898Z,31.43
2018-05-13T06:32:59.277Z,27.57
2018-05-13T06:35:26.890Z,31.80
2018-05-13T06:37:54.531Z,25.77
2018-05-13T06:40:22.175Z,28.80
2018-05-13T06:42:49.773Z,27.23
2018-05-13T06:45:17.437Z,31.43
2018-05-13T06:47:45.817Z,26.60
2018-05-13T06:50:13.461Z,28.37
2018-05-13T06:52:41.110Z,28.60
2018-05-13T06:55:08.735Z,29.90
2018-05-13T06:57:36.337Z,29.00
2018-05-13T07:00:04.006Z,34.70
2018-05-13T07:02:31.605Z,29.63
2018-05-13T07:04:59.213Z,31.80
2018-05-13T07:07:26.883Z,28.73
2018-05-13T07:09:54.495Z,31.43
2018-05-13T07:12:22.081Z,30.37
2018-05-13T07:14:50.451Z,30.87
2018-05-13T07:17:18.787Z,28.80
2018-05-13T07:19:46.396Z,27.27
2018-05-13T07:22:14.767Z,29.70
2018-05-13T07:24:43.135Z,34.60
2018-05-13T07:27:11.508Z,33.67
2018-05-13T07:29:39.111Z,28.70
2018-05-13T07:32:06.698Z,28.53
2018-05-13T07:34:34.285Z,30.90
2018-05-13T07:37:01.897Z,30.13
2018-05-13T07:39:29.529Z,30.40
2018-05-13T07:41:57.937Z,31.10
2018-05-13T07:44:25.512Z,29.13
2018-05-13T07:46:53.125Z,34.30
2018-05-13T07:49:21.500Z,26.97
2018-05-13T07:51:49.861Z,34.67
2018-05-13T07:54:17.462Z,33.83
2018-05-13T07:56:45.070Z,32.60
2018-05-13T07:59:12.659Z,31.40
2018-05-13T08:01:40.285Z,33.07
2018-05-13T08:04:07.885Z,29.00
2018-05-13T08:06:36.254Z,29.37
2018-05-13T08:09:03.859Z,29.30
2018-05-13T08:11:31.425Z,34.70
2018-05-13T08:13:59.155Z,29.83
2018-05-13T08:16:27.594Z,29.53
2018-05-13T08:18:55.242Z,30.13
2018-05-13T08:21:22.845Z,29.33
2018-05-13T08:23:51.260Z,30.10
2018-05-13T08:26:18.867Z,29.37
2018-05-13T08:28:46.519Z,33.37
2018-05-13T08:31:14.168Z,31.50
2018-05-13T08:33:41.782Z,31.90
2018-05-13T08:36:10.496Z,28.87
2018-05-13T08:38:38.089Z,33.60
2018-05-13T08:41:06.464Z,36.60
2018-05-13T08:43:34.092Z,36.63
2018-05-13T08:46:01.684Z,33.47
2018-05-13T08:48:29.405Z,31.80
2018-05-13T08:50:56.957Z,36.33
2018-05-13T08:53:25.302Z,34.40
2018-05-13T08:55:52.921Z,34.00
2018-05-13T08:58:20.597Z,32.90
2018-05-13T09:00:48.177Z,31.47
2018-05-13T09:03:15.828Z,33.27
2018-05-13T09:05:43.439Z,34.73
2018-05-13T09:08:11.107Z,35.20
2018-05-13T09:10:39.435Z,33.50
2018-05-13T09:13:07.055Z,35.57
2018-05-13T09:15:34.646Z,32.97
2018-05-13T09:18:02.322Z,42.33
2018-05-13T09:20:29.964Z,33.60
2018-05-13T09:22:57.561Z,34.03
2018-05-13T09:25:25.163Z,33.07
2018-05-13T09:27:52.738Z,34.70
2018-05-13T09:30:20.351Z,35.50
2018-05-13T09:32:48.706Z,30.10
2018-05-13T09:35:16.324Z,30.70
2018-05-13T09:37:43.884Z,34.87
2018-05-13T09:40:11.573Z,32.50
2018-05-13T09:42:39.166Z,29.73
2018-05-13T09:45:06.739Z,30.43
2018-05-13T09:47:34.389Z,30.60
2018-05-13T09:50:01.996Z,29.37
2018-05-13T09:52:29.644Z,34.33
2018-05-13T09:54:57.239Z,30.97
2018-05-13T09:57:24.879Z,28.67
2018-05-13T09:59:52.479Z,32.87
2018-05-13T10:02:20.077Z,30.80
2018-05-13T10:04:47.784Z,33.40
2018-05-13T10:07:15.392Z,29.83
2018-05-13T10:09:43.789Z,30.87
2018-05-13T10:12:11.471Z,31.27
2018-05-13T10:14:39.117Z,34.30
2018-05-13T10:17:07.862Z,30.80
2018-05-13T10:19:35.522Z,31.67
2018-05-13T10:22:03.115Z,30.87
2018-05-13T10:24:31.551Z,32.40
2018-05-13T10:26:59.185Z,31.00
2018-05-13T10:29:29.753Z,36.17
2018-05-13T10:31:57.378Z,33.97
2018-05-13T10:34:27.195Z,32.90
2018-05-13T10:37:04.374Z,31.70
2018-05-13T10:39:32.855Z,31.50
2018-05-13T10:42:00.422Z,29.40
2018-05-13T10:44:28.028Z,30.90
2018-05-13T10:46:55.803Z,29.07
2018-05-13T10:49:24.168Z,28.10
2018-05-13T10:51:51.773Z,30.77
2018-05-13T10:54:19.391Z,29.77
2018-05-13T10:56:47.028Z,28.03
2018-05-13T10:59:14.656Z,29.20
2018-05-13T11:01:42.292Z,37.53
2018-05-13T11:04:10.672Z,30.43
2018-05-13T11:06:39.081Z,36.83
2018-05-13T11:09:06.655Z,30.93
2018-05-13T11:11:34.264Z,31.70
2018-05-13T11:14:02.674Z,30.30
2018-05-13T11:16:30.705Z,28.57
2018-05-13T11:18:58.325Z,29.13
2018-05-13T11:21:25.896Z,31.53
2018-05-13T11:23:53.517Z,29.27
2018-05-13T11:26:21.173Z,31.57
2018-05-13T11:28:48.812Z,30.23
2018-05-13T11:31:17.214Z,33.30
2018-05-13T11:33:44.827Z,31.27
2018-05-13T11:36:13.265Z,31.67
2018-05-13T11:38:40.982Z,29.00
2018-05-13T11:41:08.777Z,30.73
2018-05-13T11:43:37.191Z,30.80
2018-05-13T11:46:04.904Z,32.57
2018-05-13T11:48:32.465Z,31.57
2018-05-13T11:51:00.871Z,25.80
2018-05-13T11:53:28.485Z,27.67
2018-05-13T11:55:56.097Z,27.70
2018-05-13T11:58:24.460Z,29.07
2018-05-13T12:00:52.892Z,27.07
2018-05-13T12:03:20.544Z,26.00
2018-05-13T12:05:48.154Z,26.90
2018-05-13T12:08:15.735Z,25.70
2018-05-13T12:10:44.101Z,27.20
2018-05-13T12:13:12.512Z,27.37
2018-05-13T12:15:40.110Z,26.47
2018-05-13T12:18:07.728Z,27.50
2018-05-13T12:20:35.472Z,25.77
2018-05-13T12:23:03.984Z,25.20
2018-05-13T12:25:31.562Z,27.47
2018-05-13T12:27:59.164Z,25.50
2018-05-13T12:30:27.499Z,38.93
2018-05-13T12:32:55.082Z,47.90
2018-05-13T12:35:22.698Z,54.97
2018-05-13T12:37:50.326Z,52.33
2018-05-13T12:40:18.009Z,45.83
2018-05-13T12:42:46.457Z,45.27
2018-05-13T12:45:14.094Z,47.97
2018-05-13T12:47:41.713Z,47.33
2018-05-13T12:50:10.139Z,45.67
2018-05-13T12:52:37.755Z,54.00
2018-05-13T12:55:06.151Z,50.60
2018-05-13T12:57:34.614Z,51.73
2018-05-13T13:00:02.989Z,47.50
2018-05-13T13:02:31.434Z,53.80
2018-05-13T13:04:59.031Z,47.07
2018-05-13T13:07:27.867Z,52.77
2018-05-13T13:09:55.566Z,49.90
2018-05-13T13:12:23.901Z,48.40
2018-05-13T13:14:51.501Z,55.17
2018-05-13T13:17:19.746Z,69.60
2018-05-13T13:19:48.292Z,78.77
2018-05-13T13:22:15.989Z,73.57
2018-05-13T13:24:43.588Z,80.73
2018-05-13T13:27:12.022Z,96.23
2018-05-13T13:29:40.713Z,94.67
2018-05-13T13:32:08.295Z,92.70
2018-05-13T13:34:35.945Z,99.93
2018-05-13T13:37:03.568Z,95.37
2018-05-13T13:39:31.165Z,97.17
2018-05-13T13:41:58.756Z,88.50
2018-05-13T13:44:26.376Z,86.63
2018-05-13T13:46:53.994Z,93.30
2018-05-13T13:49:22.404Z,96.30
2018-05-13T13:51:50.025Z,82.17
2018-05-13T13:54:17.657Z,78.67
2018-05-13T13:56:45.241Z,85.43
2018-05-13T13:59:12.977Z,75.50
2018-05-13T14:01:40.572Z,87.60
2018-05-13T14:04:08.188Z,81.23
2018-05-13T14:06:35.822Z,98.77
2018-05-13T14:09:03.543Z,83.00
2018-05-13T14:11:31.166Z,88.50
2018-05-13T14:13:58.818Z,81.23
2018-05-13T14:16:26.502Z,72.17
2018-05-13T14:18:54.163Z,77.00
2018-05-13T14:21:21.803Z,82.10
2018-05-13T14:23:49.554Z,88.80
2018-05-13T14:26:17.157Z,89.20
2018-05-13T14:28:44.787Z,101.33
2018-05-13T14:31:12.444Z,91.87
2018-05-13T14:33:40.032Z,91.17
2018-05-13T14:36:07.664Z,89.40
2018-05-13T14:38:35.355Z,89.83
2018-05-13T14:41:03.129Z,97.60
2018-05-13T14:43:31.440Z,77.43
2018-05-13T14:45:59.865Z,92.97
2018-05-13T14:48:27.487Z,91.60
2018-05-13T14:50:55.878Z,99.00
2018-05-13T14:53:23.511Z,99.33
2018-05-13T14:55:51.865Z,95.72
2018-05-13T14:58:19.485Z,87.37
2018-05-13T15:00:47.091Z,90.73
2018-05-13T15:03:14.732Z,94.50
2018-05-13T15:05:42.361Z,84.78
2018-05-13T15:08:10.032Z,88.87
2018-05-13T15:10:37.644Z,91.82
2018-05-13T15:13:05.988Z,93.00
2018-05-13T15:15:33.593Z,89.37
2018-05-13T15:18:02.020Z,81.85
2018-05-13T15:20:29.657Z,77.23
2018-05-13T15:22:58.014Z,81.97
2018-05-13T15:25:25.698Z,81.47
2018-05-13T15:27:54.149Z,94.03
2018-05-13T15:30:21.778Z,84.93
2018-05-13T15:32:49.862Z,83.95
2018-05-13T15:35:17.460Z,90.27
2018-05-13T15:37:45.099Z,90.20
2018-05-13T15:40:12.734Z,106.17
2018-05-13T15:42:40.410Z,81.82
2018-05-13T15:45:08.092Z,91.63
2018-05-13T15:47:35.752Z,88.25
2018-05-13T15:50:03.422Z,100.10
2018-05-13T15:52:31.047Z,87.70
2018-05-13T15:54:58.707Z,91.87
2018-05-13T15:57:26.323Z,89.00
2018-05-13T15:59:53.985Z,99.22
2018-05-13T16:02:22.364Z,91.80
2018-05-13T16:04:50.718Z,102.15
2018-05-13T16:07:18.336Z,82.18
2018-05-13T16:09:46.003Z,87.05
2018-05-13T16:12:13.696Z,79.85
2018-05-13T16:14:41.312Z,83.00
2018-05-13T16:17:08.913Z,88.78
2018-05-13T16:19:36.570Z,91.78
2018-05-13T16:22:06.144Z,81.37
2018-05-13T16:24:33.744Z,88.65
2018-05-13T16:27:01.444Z,88.25
2018-05-13T16:29:29.807Z,84.70
2018-05-13T16:31:58.172Z,89.00
2018-05-13T16:34:25.786Z,84.03
2018-05-13T16:36:53.496Z,99.50
2018-05-13T16:39:21.257Z,88.55
2018-05-13T16:41:48.911Z,92.82
2018-05-13T16:44:16.507Z,105.50
2018-05-13T16:46:44.100Z,97.50
2018-05-13T16:49:11.760Z,108.30
2018-05-13T16:51:39.341Z,102.00
2018-05-13T16:54:07.126Z,99.95
2018-05-13T16:56:34.724Z,109.57
2018-05-13T16:59:03.125Z,98.07
2018-05-13T17:01:30.833Z,95.50
2018-05-13T17:03:59.255Z,95.30
2018-05-13T17:06:26.847Z,89.82
2018-05-13T17:08:54.414Z,96.72
2018-05-13T17:11:22.088Z,91.47
2018-05-13T17:13:49.755Z,97.12
2018-05-13T17:16:17.739Z,80.47
2018-05-13T17:18:46.069Z,78.40
2018-05-13T17:21:13.792Z,77.10
2018-05-13T17:23:41.448Z,80.55
2018-05-13T17:26:09.103Z,77.82
2018-05-13T17:28:36.702Z,87.60
2018-05-13T17:31:04.368Z,77.00
2018-05-13T17:33:32.223Z,73.07
2018-05-13T17:36:00.830Z,90.10
2018-05-13T17:38:28.440Z,90.90
2018-05-13T17:40:56.074Z,76.43
2018-05-13T17:43:23.834Z,77.60
2018-05-13T17:45:51.493Z,84.40
2018-05-13T17:48:19.104Z,82.37
2018-05-13T17:50:46.782Z,80.60
2018-05-13T17:53:14.384Z,88.97
2018-05-13T17:55:43.178Z,85.10
2018-05-13T17:58:11.052Z,85.60
2018-05-13T18:00:38.676Z,91.22
2018-05-13T18:03:07.391Z,91.30
2018-05-13T18:05:34.921Z,92.80
2018-05-13T18:08:02.535Z,92.13
2018-05-13T18:10:30.194Z,92.87
2018-05-13T18:12:57.790Z,93.57
2018-05-13T18:15:26.176Z,100.30
2018-05-13T18:17:53.810Z,91.07
2018-05-13T18:20:21.499Z,107.43
2018-05-13T18:22:49.171Z,100.00
2018-05-13T18:25:16.804Z,86.57
2018-05-13T18:27:44.442Z,82.53
2018-05-13T18:30:12.082Z,83.80
2018-05-13T18:32:39.679Z,83.07
2018-05-13T18:35:07.442Z,92.00
2018-05-13T18:37:35.043Z,97.40
2018-05-13T18:40:02.665Z,89.90
2018-05-13T18:42:30.269Z,90.60
2018-05-13T18:44:57.853Z,81.27
2018-05-13T18:47:25.532Z,80.80
2018-05-13T18:49:53.171Z,88.72
2018-05-13T18:52:20.781Z,85.73
2018-05-13T18:54:48.431Z,95.33
2018-05-13T18:57:16.023Z,86.63
2018-05-13T18:59:44.398Z,90.70
2018-05-13T19:02:12.898Z,78.03
2018-05-13T19:04:40.503Z,92.35
2018-05-13T19:07:08.130Z,90.23
2018-05-13T19:09:35.792Z,94.97
2018-05-13T19:12:03.401Z,102.20
2018-05-13T19:14:31.074Z,100.33
2018-05-13T19:16:59.591Z,91.10
2018-05-13T19:19:27.180Z,92.65
2018-05-13T19:21:54.816Z,97.65
2018-05-13T19:24:22.547Z,95.75
2018-05-13T19:26:50.909Z,94.65
2018-05-13T19:29:18.539Z,88.35
2018-05-13T19:31:46.148Z,96.45
2018-05-13T19:34:15.276Z,95.68
2018-05-13T19:36:43.102Z,104.03
2018-05-13T19:39:10.683Z,103.30
2018-05-13T19:41:39.066Z,106.20
2018-05-13T19:44:06.665Z,128.57
2018-05-13T19:46:34.296Z,112.88
2018-05-13T19:49:01.917Z,100.25
2018-05-13T19:51:31.360Z,108.25
2018-05-13T19:53:58.964Z,98.22
2018-05-13T19:56:27.111Z,98.55
2018-05-13T19:58:54.752Z,115.15
2018-05-13T20:01:22.420Z,114.45
2018-05-13T20:03:50.120Z,106.65
2018-05-13T20:06:17.758Z,106.20
2018-05-13T20:08:45.467Z,101.50
2018-05-13T20:11:13.052Z,122.75
2018-05-13T20:13:41.419Z,103.70
2018-05-13T20:16:09.875Z,118.70
2018-05-13T20:18:37.530Z,130.45
2018-05-13T20:21:05.144Z,107.55
2018-05-13T20:23:34.789Z,107.40
2018-05-13T20:26:02.468Z,102.38
2018-05-13T20:28:30.124Z,101.45
2018-05-13T20:30:57.814Z,107.00
2018-05-13T20:33:25.481Z,101.72
2018-05-13T20:35:53.182Z,104.07
2018-05-13T20:38:21.535Z,98.60
2018-05-13T20:40:49.173Z,107.10
2018-05-13T20:43:16.782Z,100.75
2018-05-13T20:45:44.430Z,110.72
2018-05-13T20:48:12.158Z,108.40
2018-05-13T20:50:39.834Z,110.18
2018-05-13T20:53:07.456Z,114.18
2018-05-13T20:55:35.111Z,112.28
2018-05-13T20:58:02.740Z,111.10
2018-05-13T21:00:31.306Z,117.72
2018-05-13T21:02:59.731Z,110.30
2018-05-13T21:05:27.408Z,116.28
2018-05-13T21:07:55.027Z,107.70
2018-05-13T21:10:23.439Z,97.28
2018-05-13T21:12:52.677Z,108.12
2018-05-13T21:15:21.039Z,101.20
2018-05-13T21:17:48.678Z,101.20
2018-05-13T21:20:16.303Z,89.10
2018-05-13T21:22:43.969Z,102.25
2018-05-13T21:25:11.558Z,97.60
2018-05-13T21:27:39.206Z,96.65
2018-05-13T21:30:06.884Z,104.93
2018-05-13T21:32:34.518Z,99.68
2018-05-13T21:35:02.149Z,100.47
2018-05-13T21:37:29.788Z,101.00
2018-05-13T21:39:58.227Z,94.93
2018-05-13T21:42:26.575Z,98.95
2018-05-13T21:44:54.190Z,99.13
2018-05-13T21:47:21.832Z,100.40
2018-05-13T21:49:49.454Z,105.53
2018-05-13T21:52:17.054Z,98.03
2018-05-13T21:54:44.661Z,96.80
2018-05-13T21:57:12.287Z,103.30
2018-05-13T21:59:39.891Z,100.50
2018-05-13T22:02:07.516Z,91.03
2018-05-13T22:04:35.224Z,89.03
2018-05-13T22:07:02.823Z,83.18
2018-05-13T22:09:30.447Z,85.43
2018-05-13T22:11:58.175Z,92.80
2018-05-13T22:14:25.783Z,94.97
2018-05-13T22:16:54.146Z,106.00
2018-05-13T22:19:21.847Z,88.78
2018-05-13T22:21:49.441Z,87.28
2018-05-13T22:24:17.069Z,94.20
2018-05-13T22:26:44.700Z,102.10
2018-05-13T22:29:13.100Z,89.62
2018-05-13T22:31:41.472Z,94.70
2018-05-13T22:34:09.821Z,102.12
2018-05-13T22:36:37.562Z,88.40
2018-05-13T22:39:05.088Z,90.53
2018-05-13T22:41:32.761Z,109.30
2018-05-13T22:44:00.382Z,93.53
2018-05-13T22:46:28.066Z,98.62
2018-05-13T22:48:56.609Z,96.40
2018-05-13T22:51:24.206Z,93.28
2018-05-13T22:53:52.613Z,96.18
2018-05-13T22:56:20.401Z,98.87
2018-05-13T22:58:48.021Z,95.80
2018-05-13T23:01:15.611Z,108.90
2018-05-13T23:03:43.272Z,116.97
2018-05-13T23:06:10.913Z,100.72
2018-05-13T23:08:38.576Z,99.37
2018-05-13T23:11:06.240Z,95.80
2018-05-13T23:13:34.879Z,102.18
2018-05-13T23:16:02.511Z,106.10
2018-05-13T23:18:30.275Z,100.62
2018-05-13T23:20:57.865Z,111.25
2018-05-13T23:23:25.467Z,106.03
2018-05-13T23:25:53.105Z,108.05
2018-05-13T23:28:20.682Z,98.37
2018-05-13T23:30:49.070Z,101.62
2018-05-13T23:33:16.665Z,98.05
2018-05-13T23:35:44.303Z,90.63
2018-05-13T23:38:11.906Z,104.25
2018-05-13T23:40:39.516Z,101.63
2018-05-13T23:43:07.139Z,100.15
2018-05-13T23:45:34.759Z,91.47
2018-05-13T23:48:02.376Z,92.40
2018-05-13T23:50:30.752Z,93.93
2018-05-13T23:52:59.116Z,101.25
2018-05-13T23:55:26.742Z,98.18
2018-05-13T23:57:54.341Z,102.12
